Sioux Falls Regional Airport

Airport
ICAO code: 
KFSD
Summary
ICAO Region: 
NAM
Territory: 
Location: 
Sioux Falls, South Dakota,
Elevation: 
1429 ft
Coordinates: 
Aerial View: 
43° 35' 6.617" N, 96° 44' 24.357" W
Airport CFIT: 
Altimeter Temperature Error Correction
Metar
Observation
KFSD 021456Z 27005KT 10SM FEW110 BKN250 06/02 A2998 RMK AO2 SLP157 6//// T00610017 51029 PNO $
Station
Sioux Falls, Foss Field
Date/Time
2021-12-02 14:56:00
Wind direction
270°
Wind speed
05 kts
Lowest cloud amount
few clouds
Temperature
6.1°C
Dew point
1.7°C
Humidity
73%
Weather condition
n/a

Description

Sioux Falls Regional Airport, also known as Joe Foss Field, is a public and military (ANG) use airport located 6 km northwest of the central business district of Sioux Falls, a city in Minnehaha County, South Dakota.

Climatology

Humid continental climate (Köppen climate classification Dfa) - characterized by four seasons: cold, windy, snowy winters, mild springs, hot, humid summers, and crisp and relatively short autumns. Precipitation reaches its lowest in January and February and peaks in summer and latter half of spring.

Runways

Designator Length Width Surface Rops
9/27 961 23 CON Yes/Yes
15/33 2438 46 ASP Yes/Yes
3/21 2743 46 CON Yes/Yes
Airport map: 
Aerial View: 

SKYbrary Partners:

Safety knowledge contributed by: